Time;durP1;ratioP1;P1;durP2;ratioP2;P2;SDS_P1;SDS_P2;PMS_P1;PMS_P2;Temp;Humidity;BMP_temperature;BMP_pressure;BME280_temperature;BME280_humidity;BME280_pressure;Samples;Min_cycle;Max_cycle;Signal;HPM_P1;HPM_P2
2021/12/13 08:56:23;;;;;;;42.00;22.92;;;;;;;8.39;97.22;102557.53;2105762;27;20076;-61
2021/12/13 08:57:50;;;;;;;45.20;23.15;;;;;;;8.40;97.55;102554.00;2113208;28;31927;-62
2021/12/13 08:58:59;;;;;;;42.22;23.38;;;;;;;8.40;96.95;102554.00;2113703;28;20033;-65
2021/12/13 09:00:39;;;;;;;45.85;23.45;;;;;;;8.48;97.36;102550.56;2112702;28;37926;-79
2021/12/13 09:01:48;;;;;;;49.50;24.38;;;;;;;8.47;97.20;102562.09;2097361;28;31226;-63
2021/12/13 09:03:37;;;;;;;43.95;23.48;;;;;;;8.47;97.57;102554.09;2092643;28;44530;-57
2021/12/13 09:04:54;;;;;;;43.42;25.02;;;;;;;8.49;97.34;102563.03;2109687;28;45252;-61
2021/12/13 09:06:05;;;;;;;43.85;24.40;;;;;;;8.50;96.30;102559.47;2112767;28;43415;-60
2021/12/13 09:07:13;;;;;;;44.80;25.83;;;;;;;8.48;96.47;102559.47;2112633;28;43351;-60
2021/12/13 09:08:28;;;;;;;39.15;23.92;;;;;;;8.50;96.86;102556.81;2112965;28;31612;-60
2021/12/13 09:09:30;;;;;;;42.88;25.00;;;;;;;8.49;96.53;102557.69;2103132;28;45459;-61
2021/12/13 09:10:45;;;;;;;43.25;25.95;;;;;;;8.49;96.07;102561.28;2104262;28;45114;-65
2021/12/13 09:12:00;;;;;;;42.65;24.88;;;;;;;8.48;96.79;102554.13;2103546;28;42386;-61
2021/12/13 09:13:02;;;;;;;47.85;25.60;;;;;;;8.49;96.48;102563.03;2097489;28;45634;-63
2021/12/13 09:14:45;;;;;;;45.60;25.90;;;;;;;8.50;96.02;102555.03;2103448;28;36935;-60
2021/12/13 09:15:49;;;;;;;40.95;23.88;;;;;;;8.51;96.18;102566.63;2079467;28;44136;-61
2021/12/13 09:17:21;;;;;;;47.35;26.17;;;;;;;8.50;96.52;102567.50;2109677;28;34876;-60
2021/12/13 09:18:23;;;;;;;42.97;26.73;;;;;;;8.50;97.02;102567.50;2113310;28;42657;-60
2021/12/13 09:19:36;;;;;;;49.08;26.52;;;;;;;8.49;97.11;102565.69;2114560;28;20094;-60
2021/12/13 09:20:45;;;;;;;45.92;26.88;;;;;;;8.49;96.41;102571.03;2114001;28;45650;-65
2021/12/13 09:22:04;;;;;;;44.50;26.48;;;;;;;8.50;96.25;102578.16;2105030;28;45327;-61
2021/12/13 09:23:36;;;;;;;47.35;26.42;;;;;;;8.48;96.14;102570.13;2109147;28;29558;-61
2021/12/13 09:24:47;;;;;;;44.63;25.38;;;;;;;8.50;96.47;102576.38;2104932;28;42319;-60
2021/12/13 09:26:07;;;;;;;49.47;27.65;;;;;;;8.50;96.30;102578.16;2114302;28;26301;-61
2021/12/13 09:27:30;;;;;;;51.45;27.77;;;;;;;8.49;96.75;102579.97;2104402;28;45096;-61
2021/12/13 09:29:04;;;;;;;49.65;27.02;;;;;;;8.49;96.17;102577.28;2105615;28;20289;-61
2021/12/13 09:30:58;;;;;;;44.47;26.55;;;;;;;8.50;96.20;102586.19;2113965;28;45452;-61
2021/12/13 09:32:15;;;;;;;44.75;24.88;;;;;;;8.50;96.43;102583.50;2113422;28;45956;-61
2021/12/13 09:33:37;;;;;;;49.65;27.52;;;;;;;8.48;96.45;102582.59;2104782;28;43913;-61
2021/12/13 09:34:39;;;;;;;47.50;27.45;;;;;;;8.49;97.00;102579.03;2097326;28;32524;-61
2021/12/13 09:36:02;;;;;;;49.30;28.30;;;;;;;8.48;96.93;102574.59;2097141;28;42555;-60
2021/12/13 09:37:06;;;;;;;48.08;28.02;;;;;;;8.48;96.01;102575.47;2107699;28;44483;-59
2021/12/13 09:38:50;;;;;;;50.78;28.70;;;;;;;8.48;96.16;102575.47;2104640;28;44324;-60
2021/12/13 09:40:03;;;;;;;48.25;28.25;;;;;;;8.50;95.96;102580.84;2110188;28;43867;-60
2021/12/13 09:41:38;;;;;;;41.53;24.27;;;;;;;8.56;96.52;102576.47;2113132;28;46383;-58
2021/12/13 09:42:55;;;;;;;49.08;28.33;;;;;;;8.55;96.14;102581.81;2104874;28;41452;-60
2021/12/13 09:44:18;;;;;;;46.75;26.00;;;;;;;8.56;96.09;102580.91;2093356;28;45568;-59
2021/12/13 09:45:32;;;;;;;49.63;27.77;;;;;;;8.52;96.11;102579.97;2104530;27;38979;-60
2021/12/13 09:46:44;;;;;;;47.15;27.75;;;;;;;8.53;96.78;102583.56;2107462;28;43994;-61
2021/12/13 09:47:46;;;;;;;49.65;28.30;;;;;;;8.52;95.97;102577.31;2106741;28;44895;-61
2021/12/13 09:48:55;;;;;;;44.40;26.75;;;;;;;8.55;96.31;102582.69;2113561;28;42172;-61
2021/12/13 09:50:02;;;;;;;45.28;26.88;;;;;;;8.55;95.55;102582.69;2113548;28;45483;-60
2021/12/13 09:51:14;;;;;;;47.42;26.88;;;;;;;8.55;95.91;102579.13;2104688;28;43662;-60
2021/12/13 09:52:37;;;;;;;44.92;27.42;;;;;;;8.55;95.64;102579.13;2106264;28;45383;-60
2021/12/13 09:53:42;;;;;;;47.03;27.40;;;;;;;8.54;95.71;102586.25;2112669;28;31370;-61
2021/12/13 09:54:56;;;;;;;47.33;27.50;;;;;;;8.56;95.74;102587.16;2112939;28;44342;-59
2021/12/13 09:56:04;;;;;;;46.38;27.48;;;;;;;8.55;96.31;102585.34;2112977;27;43862;-59
2021/12/13 09:57:16;;;;;;;47.40;28.23;;;;;;;8.55;95.46;102588.03;2103716;28;37774;-60
2021/12/13 09:58:45;;;;;;;41.10;25.90;;;;;;;8.57;96.39;102585.38;2099979;28;44020;-59
2021/12/13 09:59:53;;;;;;;44.13;27.75;;;;;;;8.57;95.76;102588.03;2111003;28;20114;-59
2021/12/13 10:01:13;;;;;;;45.72;27.60;;;;;;;8.56;96.55;102588.91;2112836;28;45739;-60
2021/12/13 10:02:31;;;;;;;47.45;28.77;;;;;;;8.57;95.71;102594.28;2113522;28;41222;-60
2021/12/13 10:03:48;;;;;;;44.58;27.23;;;;;;;8.57;95.75;102588.03;2113723;27;44802;-60
2021/12/13 10:04:52;;;;;;;44.95;28.27;;;;;;;8.57;95.99;102596.06;2113820;28;42956;-60
2021/12/13 10:06:05;;;;;;;46.60;27.35;;;;;;;8.57;95.76;102596.94;2113627;28;44415;-60
2021/12/13 10:07:18;;;;;;;46.92;27.75;;;;;;;8.58;95.64;102589.84;2104775;28;45800;-59
2021/12/13 10:08:44;;;;;;;46.33;28.00;;;;;;;8.57;96.01;102599.63;2097213;28;30727;-60
2021/12/13 10:09:58;;;;;;;44.85;27.27;;;;;;;8.58;95.61;102595.19;2102204;28;20939;-60
2021/12/13 10:11:11;;;;;;;45.40;28.08;;;;;;;8.60;95.83;102601.44;2109586;28;43859;-60
2021/12/13 10:12:29;;;;;;;45.38;28.45;;;;;;;8.59;94.96;102588.97;2113725;28;44081;-65
2021/12/13 10:13:36;;;;;;;48.95;27.30;;;;;;;8.59;95.66;102599.63;2113807;28;30280;-61
2021/12/13 10:14:48;;;;;;;45.05;28.27;;;;;;;8.58;95.22;102598.75;2113407;28;36731;-61
2021/12/13 10:15:58;;;;;;;41.63;27.13;;;;;;;8.59;95.37;102596.97;2111764;28;44557;-60
2021/12/13 10:17:02;;;;;;;;;;;;;;;8.59;95.87;102591.63;2113598;28;42174;-61
2021/12/13 10:18:13;;;;;;;41.55;25.85;;;;;;;8.60;95.39;102591.66;2113497;28;45882;-61
2021/12/13 10:19:31;;;;;;;49.63;28.58;;;;;;;8.60;96.14;102588.09;2113622;28;45280;-61
2021/12/13 10:20:44;;;;;;;44.58;28.45;;;;;;;8.57;95.64;102586.25;2113278;28;43827;-60
2021/12/13 10:21:48;;;;;;;43.67;27.95;;;;;;;8.58;95.60;102589.84;2113606;28;45682;-60
2021/12/13 10:22:53;;;;;;;43.53;27.38;;;;;;;8.59;95.75;102584.50;2103633;28;45982;-60
2021/12/13 10:24:08;;;;;;;46.45;28.60;;;;;;;8.59;95.63;102591.63;2102165;28;44090;-60
2021/12/13 10:25:26;;;;;;;46.22;29.27;;;;;;;8.59;95.57;102588.97;2113891;28;21032;-60
2021/12/13 10:26:38;;;;;;;46.05;28.35;;;;;;;8.60;95.44;102588.97;2112729;28;43752;-60
2021/12/13 10:27:41;;;;;;;47.22;28.60;;;;;;;8.60;95.19;102588.09;2113704;28;29513;-62
2021/12/13 10:28:55;;;;;;;45.05;27.35;;;;;;;8.62;95.70;102590.78;2114105;28;44583;-62
2021/12/13 10:30:00;;;;;;;45.05;28.70;;;;;;;8.61;95.54;102589.88;2112760;28;45282;-60
2021/12/13 10:31:04;;;;;;;44.90;28.63;;;;;;;8.62;95.26;102589.00;2112539;28;46398;-60
2021/12/13 10:32:19;;;;;;;47.40;28.60;;;;;;;8.64;95.92;102584.56;2113553;28;42391;-60
2021/12/13 10:33:27;;;;;;;47.75;30.48;;;;;;;8.64;94.80;102581.00;2104655;28;45546;-60
2021/12/13 10:34:39;;;;;;;47.65;29.05;;;;;;;8.62;94.52;102578.31;2105230;28;45571;-62
2021/12/13 10:35:43;;;;;;;49.72;30.13;;;;;;;8.60;95.49;102578.31;2113426;28;44328;-60
2021/12/13 10:36:58;;;;;;;46.90;30.70;;;;;;;8.62;95.09;102575.66;2113590;28;36100;-60
2021/12/13 10:38:15;;;;;;;45.45;29.40;;;;;;;8.61;94.87;102576.50;2112627;28;43956;-60
2021/12/13 10:39:24;;;;;;;49.15;29.73;;;;;;;8.59;95.54;102584.50;2113742;28;30028;-61
2021/12/13 10:40:42;;;;;;;44.50;29.85;;;;;;;8.62;95.04;102582.78;2113453;28;44560;-60
2021/12/13 10:41:48;;;;;;;44.10;28.83;;;;;;;8.63;94.91;102584.56;2113474;28;45276;-60
2021/12/13 10:42:57;;;;;;;44.80;29.80;;;;;;;8.62;95.77;102581.00;2112655;28;46186;-60
2021/12/13 10:44:08;;;;;;;43.90;30.10;;;;;;;8.63;95.08;102581.88;2100119;28;43823;-60
2021/12/13 10:45:19;;;;;;;42.28;29.60;;;;;;;8.61;95.34;102581.84;2108031;27;45519;-61
2021/12/13 10:46:30;;;;;;;43.92;27.42;;;;;;;8.64;94.94;102583.69;2109742;28;45239;-61
2021/12/13 10:47:38;;;;;;;46.17;29.73;;;;;;;8.64;95.04;102583.69;2106182;28;41200;-64
2021/12/13 10:48:47;;;;;;;45.33;30.02;;;;;;;8.63;95.30;102580.09;2112807;28;32321;-60
2021/12/13 10:49:52;;;;;;;41.97;29.80;;;;;;;8.61;95.43;102579.19;2112545;28;46108;-62
2021/12/13 10:51:06;;;;;;;44.70;29.13;;;;;;;8.62;95.56;102578.31;2112686;28;44452;-65
2021/12/13 10:52:26;;;;;;;43.30;29.35;;;;;;;8.63;95.72;102584.56;2104219;28;46373;-60
2021/12/13 10:53:29;;;;;;;48.88;30.85;;;;;;;8.62;95.51;102581.00;2107613;28;43539;-60
2021/12/13 10:54:45;;;;;;;47.53;29.85;;;;;;;8.64;95.70;102571.22;2104136;28;44260;-60
2021/12/13 10:55:58;;;;;;;45.17;29.33;;;;;;;8.67;94.93;102581.03;2106293;28;44350;-60
2021/12/13 10:57:12;;;;;;;47.85;30.23;;;;;;;8.66;94.73;102580.13;2113071;28;45010;-60
2021/12/13 10:58:21;;;;;;;45.55;29.20;;;;;;;8.64;95.33;102581.91;2114243;28;20040;-59
2021/12/13 10:59:28;;;;;;;45.83;31.83;;;;;;;8.64;95.06;102583.69;2114603;28;20040;-61
2021/12/13 11:00:46;;;;;;;52.90;31.70;;;;;;;8.64;95.42;102581.91;2112309;28;45982;-60
2021/12/13 11:01:59;;;;;;;48.45;31.45;;;;;;;8.62;95.16;102572.09;2113071;28;44842;-60
2021/12/13 11:03:13;;;;;;;46.13;30.27;;;;;;;8.62;94.91;102572.97;2113828;27;20993;-63
2021/12/13 11:04:24;;;;;;;44.85;30.13;;;;;;;8.65;95.50;102577.44;2112746;28;45270;-60
2021/12/13 11:05:28;;;;;;;48.33;30.92;;;;;;;8.65;94.73;102572.09;2113751;28;34348;-59
2021/12/13 11:06:30;;;;;;;46.28;30.13;;;;;;;8.63;94.52;102574.75;2112959;28;44307;-60
2021/12/13 11:07:32;;;;;;;50.22;31.17;;;;;;;8.66;94.99;102564.13;2112597;28;45830;-59
2021/12/13 11:08:41;;;;;;;46.83;31.48;;;;;;;8.66;95.09;102564.13;2104051;28;45093;-59
2021/12/13 11:09:46;;;;;;;45.63;31.77;;;;;;;8.66;95.16;102566.78;2105313;28;43479;-59
2021/12/13 11:11:05;;;;;;;44.50;31.10;;;;;;;8.68;95.62;102566.81;2105261;28;21004;-61
2021/12/13 11:12:18;;;;;;;46.22;29.98;;;;;;;8.64;95.14;102571.22;2107231;28;44641;-60
2021/12/13 11:13:28;;;;;;;48.53;31.20;;;;;;;8.65;94.52;102572.09;2114169;28;22016;-62
2021/12/13 11:14:33;;;;;;;46.35;31.67;;;;;;;8.68;94.32;102569.47;2112989;28;41205;-59
2021/12/13 11:15:44;;;;;;;47.75;31.30;;;;;;;8.67;94.40;102573.94;2103408;28;43332;-58
2021/12/13 11:16:55;;;;;;;42.25;30.38;;;;;;;8.67;95.23;102560.59;2106396;28;45910;-59
2021/12/13 11:18:01;;;;;;;45.05;31.25;;;;;;;8.67;94.63;102562.34;2112569;28;44438;-59
2021/12/13 11:19:11;;;;;;;43.00;29.88;;;;;;;8.67;93.98;102563.25;2112437;28;46238;-60
2021/12/13 11:20:42;;;;;;;44.38;30.13;;;;;;;8.66;94.21;102563.22;2113164;28;42459;-59
2021/12/13 11:21:49;;;;;;;41.85;29.30;;;;;;;8.67;94.58;102557.91;2103686;28;45889;-61
2021/12/13 11:22:52;;;;;;;41.50;29.88;;;;;;;8.67;94.18;102565.94;2112117;28;46121;-59
2021/12/13 11:23:56;;;;;;;44.55;30.80;;;;;;;8.67;94.00;102563.25;2112300;28;45181;-59
2021/12/13 11:25:17;;;;;;;49.30;30.98;;;;;;;8.68;94.89;102564.13;2112836;28;44257;-59
2021/12/13 11:26:24;;;;;;;47.28;31.15;;;;;;;8.68;94.36;102567.69;2104003;28;42512;-59
2021/12/13 11:27:31;;;;;;;43.15;29.73;;;;;;;8.68;94.75;102562.34;2106400;28;45495;-59
2021/12/13 11:28:35;;;;;;;48.35;30.90;;;;;;;8.68;94.65;102569.47;2112988;28;45628;-59
2021/12/13 11:29:41;;;;;;;46.47;30.58;;;;;;;8.68;95.26;102569.47;2112029;28;45279;-58
2021/12/13 11:30:46;;;;;;;44.70;31.27;;;;;;;8.68;94.89;102569.47;2113106;28;44945;-60
2021/12/13 11:31:47;;;;;;;42.70;29.60;;;;;;;8.68;94.54;102572.16;2104097;28;43841;-59
2021/12/13 11:32:59;;;;;;;46.25;31.50;;;;;;;8.68;95.05;102574.81;2105783;28;20091;-59
2021/12/13 11:34:01;;;;;;;44.40;29.40;;;;;;;8.69;94.08;102564.16;2112807;28;44413;-59
2021/12/13 11:35:24;;;;;;;44.72;31.25;;;;;;;8.70;94.64;102575.72;2113026;28;43738;-60
2021/12/13 11:36:47;;;;;;;43.25;28.75;;;;;;;8.70;94.57;102578.41;2112711;28;43946;-59
2021/12/13 11:38:26;;;;;;;38.80;27.42;;;;;;;8.70;94.10;102571.28;2112059;28;43430;-60
2021/12/13 11:40:08;;;;;;;42.45;30.48;;;;;;;8.68;94.17;102566.81;2113050;28;45348;-60
2021/12/13 11:41:51;;;;;;;44.33;29.95;;;;;;;8.69;94.58;102569.50;2113541;27;28934;-61
2021/12/13 11:43:26;;;;;;;43.40;29.48;;;;;;;8.68;94.54;102573.03;2104298;28;43366;-60
2021/12/13 11:45:03;;;;;;;42.58;29.85;;;;;;;8.67;94.82;102571.25;2104205;28;25440;-60
2021/12/13 11:46:17;;;;;;;39.33;28.23;;;;;;;8.65;94.13;102573.03;2104440;28;43646;-59
2021/12/13 11:47:29;;;;;;;41.50;29.55;;;;;;;8.66;94.71;102571.25;2105648;28;20029;-59
2021/12/13 11:49:07;;;;;;;41.33;28.33;;;;;;;8.70;94.31;102565.94;2104535;28;44970;-60
2021/12/13 11:50:59;;;;;;;39.10;28.75;;;;;;;8.66;94.56;102558.78;2105073;28;28771;-60
2021/12/13 11:52:36;;;;;;;42.53;29.35;;;;;;;8.64;94.05;102560.53;2103658;28;43088;-59
2021/12/13 11:54:30;;;;;;;38.70;28.13;;;;;;;8.64;94.06;102568.56;2103890;28;44643;-60
2021/12/13 11:56:17;;;;;;;37.88;26.88;;;;;;;8.67;93.88;102565.00;2104790;28;28555;-62
2021/12/13 11:57:46;;;;;;;40.20;27.42;;;;;;;8.66;94.17;102569.47;2104407;28;43159;-59
2021/12/13 11:59:19;;;;;;;38.92;26.25;;;;;;;8.68;94.18;102573.03;2104434;28;42204;-61
2021/12/13 12:01:01;;;;;;;40.50;28.88;;;;;;;8.69;93.95;102566.84;2104020;28;44493;-60
2021/12/13 12:02:40;;;;;;;37.20;26.05;;;;;;;8.70;93.86;102575.72;2104679;28;36218;-59
2021/12/13 12:04:24;;;;;;;38.30;25.77;;;;;;;8.70;93.30;102565.06;2104278;28;45640;-59
2021/12/13 12:06:13;;;;;;;38.85;26.35;;;;;;;8.72;94.19;102565.97;2104628;28;44938;-60
2021/12/13 12:08:12;;;;;;;36.92;25.60;;;;;;;8.70;93.15;102557.94;2104100;28;36817;-60
2021/12/13 12:09:22;;;;;;;33.45;23.52;;;;;;;8.71;93.43;102564.19;2095403;28;45118;-60
2021/12/13 12:11:04;;;;;;;36.28;25.75;;;;;;;8.70;93.51;102565.94;2105584;28;45296;-61
2021/12/13 12:12:30;;;;;;;37.08;26.45;;;;;;;8.69;92.75;102560.59;2112686;28;43719;-60
2021/12/13 12:13:53;;;;;;;34.42;24.70;;;;;;;8.70;93.95;102565.94;2113143;28;28791;-61
2021/12/13 12:15:00;;;;;;;35.63;25.38;;;;;;;8.70;93.48;102560.59;2112437;28;45336;-60
2021/12/13 12:16:04;;;;;;;34.00;25.17;;;;;;;8.70;93.50;102559.72;2113074;28;20798;-60
2021/12/13 12:17:08;;;;;;;34.83;25.77;;;;;;;8.69;93.07;102556.16;2111405;28;46788;-60
2021/12/13 12:18:19;;;;;;;35.58;25.40;;;;;;;8.69;92.69;102561.50;2112941;28;42180;-60
2021/12/13 12:19:34;;;;;;;36.53;25.58;;;;;;;8.68;92.81;102550.78;2113048;28;44315;-62
2021/12/13 12:20:50;;;;;;;33.40;24.90;;;;;;;8.66;93.85;102553.44;2112339;28;44315;-60
2021/12/13 12:21:58;;;;;;;36.78;25.15;;;;;;;8.70;93.33;102563.25;2111667;28;44106;-61
2021/12/13 12:23:08;;;;;;;31.08;24.10;;;;;;;8.70;93.49;102552.59;2112910;28;45278;-60
2021/12/13 12:24:22;;;;;;;39.72;25.00;;;;;;;8.67;93.61;102547.22;2112849;28;43488;-61
2021/12/13 12:25:30;;;;;;;33.40;23.17;;;;;;;8.68;92.86;102545.44;2102923;28;45218;-60
2021/12/13 12:26:36;;;;;;;35.95;24.10;;;;;;;8.67;93.14;102549.91;2107348;28;31296;-61
2021/12/13 12:27:39;;;;;;;33.85;24.52;;;;;;;8.67;92.97;102544.56;2112881;28;43883;-61
2021/12/13 12:28:46;;;;;;;32.95;24.70;;;;;;;8.66;93.36;102537.41;2111815;28;44230;-61
2021/12/13 12:29:54;;;;;;;32.92;23.55;;;;;;;8.66;92.54;102547.22;2111842;28;41255;-61
2021/12/13 12:30:58;;;;;;;37.70;24.75;;;;;;;8.69;93.25;102550.81;2103619;28;43434;-61
2021/12/13 12:32:11;;;;;;;33.35;24.13;;;;;;;8.69;92.57;102550.81;2104753;28;44850;-61
2021/12/13 12:33:37;;;;;;;31.65;23.92;;;;;;;8.68;92.83;102550.78;2112843;28;44186;-61
2021/12/13 12:34:58;;;;;;;34.35;24.13;;;;;;;8.70;92.45;102546.34;2112684;28;44694;-61
2021/12/13 12:36:20;;;;;;;32.88;23.15;;;;;;;8.69;92.71;102553.47;2111784;28;45878;-61
2021/12/13 12:37:25;;;;;;;31.30;22.40;;;;;;;8.69;93.01;102558.81;2112415;28;43884;-61
2021/12/13 12:39:00;;;;;;;32.17;23.70;;;;;;;8.68;92.94;102550.78;2113321;28;20905;-60
2021/12/13 12:40:07;;;;;;;29.55;22.30;;;;;;;8.69;93.08;102553.47;2112921;28;43696;-61
2021/12/13 12:41:12;;;;;;;31.88;22.83;;;;;;;8.71;93.20;102562.41;2112493;28;45494;-61
2021/12/13 12:42:34;;;;;;;30.25;23.13;;;;;;;8.70;93.09;102554.38;2113022;28;32551;-61
2021/12/13 12:43:51;;;;;;;32.00;23.02;;;;;;;8.69;92.53;102558.81;2112806;28;20112;-61
2021/12/13 12:44:55;;;;;;;29.25;23.25;;;;;;;8.71;92.90;102556.16;2112735;28;39068;-61
2021/12/13 12:46:06;;;;;;;32.15;23.10;;;;;;;8.69;92.59;102550.81;2112239;28;43459;-61
2021/12/13 12:47:09;;;;;;;26.42;20.15;;;;;;;8.72;92.90;102545.50;2111680;28;45276;-61
2021/12/13 12:48:31;;;;;;;27.88;21.83;;;;;;;8.72;93.07;102557.94;2112736;28;28036;-61
2021/12/13 12:49:33;;;;;;;29.08;21.67;;;;;;;8.73;92.45;102549.97;2113332;28;44255;-61
2021/12/13 12:50:49;;;;;;;27.80;22.50;;;;;;;8.70;92.18;102554.38;2114071;28;46246;-61
2021/12/13 12:52:03;;;;;;;27.73;22.10;;;;;;;8.71;92.64;102551.72;2104287;28;42448;-61
2021/12/13 12:53:23;;;;;;;31.95;21.67;;;;;;;8.74;92.46;102557.09;2113352;28;43330;-61
2021/12/13 12:54:27;;;;;;;31.35;21.65;;;;;;;8.73;92.07;102549.97;2114465;28;20170;-61
2021/12/13 12:55:38;;;;;;;27.98;21.15;;;;;;;8.74;92.92;102545.50;2113637;27;31955;-61
2021/12/13 12:56:57;;;;;;;30.13;21.67;;;;;;;8.75;91.75;102549.97;2114085;28;46570;-60
2021/12/13 12:58:06;;;;;;;28.08;20.33;;;;;;;8.77;92.23;102554.47;2114519;28;28178;-61
2021/12/13 12:59:18;;;;;;;27.45;20.58;;;;;;;8.78;92.01;102542.88;2113657;28;43079;-61
2021/12/13 13:00:29;;;;;;;28.20;20.50;;;;;;;8.78;92.49;102555.34;2104516;28;46379;-61
2021/12/13 13:02:11;;;;;;;26.38;18.52;;;;;;;8.78;91.36;102550.91;2104976;28;44494;-60
2021/12/13 13:03:22;;;;;;;25.23;19.67;;;;;;;8.77;91.26;102551.81;2111728;28;39379;-60
2021/12/13 13:04:29;;;;;;;28.48;19.40;;;;;;;8.79;91.30;102549.13;2113760;28;45902;-60
2021/12/13 13:05:33;;;;;;;26.45;20.05;;;;;;;8.79;91.38;102550.03;2113933;28;44129;-60
2021/12/13 13:06:35;;;;;;;24.02;19.63;;;;;;;8.77;91.37;102545.53;2113164;28;46287;-60
2021/12/13 13:07:39;;;;;;;28.63;19.98;;;;;;;8.76;91.92;102544.66;2114690;28;43551;-60
2021/12/13 13:08:46;;;;;;;25.13;18.38;;;;;;;8.77;91.00;102551.81;2114015;28;44264;-60
2021/12/13 13:10:04;;;;;;;27.02;18.50;;;;;;;8.77;91.51;102551.81;2105873;28;20111;-60
2021/12/13 13:12:29;;;;;;;;;;;;;;;8.75;91.23;102550.88;2113675;27;32607;-60
2021/12/13 13:13:40;;;;;;;26.77;19.60;;;;;;;8.77;91.78;102554.47;2104111;28;40838;-60
2021/12/13 13:15:05;;;;;;;25.23;17.98;;;;;;;8.81;91.06;102558.06;2106681;28;44590;-59
2021/12/13 13:16:10;;;;;;;21.33;17.80;;;;;;;8.81;91.72;102544.72;2096836;28;33187;-60
2021/12/13 13:17:12;;;;;;;25.92;18.73;;;;;;;8.84;91.67;102551.84;2099504;28;44315;-59
2021/12/13 13:18:23;;;;;;;27.20;18.05;;;;;;;8.83;90.64;102544.72;2105492;28;46333;-61
2021/12/13 13:19:45;;;;;;;;;;;;;;;8.82;91.54;102548.28;2106245;28;42110;-61
2021/12/13 13:20:58;;;;;;;21.55;17.02;;;;;;;8.85;91.58;102559.00;2104538;28;44033;-60
2021/12/13 13:22:12;;;;;;;27.08;17.92;;;;;;;8.84;90.60;102557.19;2106418;28;20817;-61
2021/12/13 13:24:00;;;;;;;21.23;17.27;;;;;;;8.84;91.53;102551.84;2104941;28;30688;-62
2021/12/13 13:25:18;;;;;;;22.63;16.17;;;;;;;8.85;91.53;102554.53;2113510;28;46820;-60
2021/12/13 13:26:28;;;;;;;21.42;17.00;;;;;;;8.84;91.64;102554.53;2105806;28;29226;-59
2021/12/13 13:27:31;;;;;;;22.58;17.20;;;;;;;8.79;90.19;102554.47;2107403;28;44282;-60
2021/12/13 13:28:58;;;;;;;21.70;16.63;;;;;;;8.78;91.11;102552.69;2113822;28;20051;-60
2021/12/13 13:30:01;;;;;;;24.52;17.15;;;;;;;8.78;91.86;102556.25;2114835;28;20864;-59
2021/12/13 13:31:24;;;;;;;22.55;17.02;;;;;;;8.78;91.23;102558.91;2113497;28;45196;-60
2021/12/13 13:32:27;;;;;;;22.08;16.92;;;;;;;8.76;90.79;102554.44;2113328;28;45054;-61
2021/12/13 13:33:53;;;;;;;23.52;17.73;;;;;;;8.76;90.59;102555.34;2103794;28;45434;-60
2021/12/13 13:34:59;;;;;;;21.10;17.27;;;;;;;8.74;91.56;102554.44;2107892;28;45001;-62
2021/12/13 13:36:03;;;;;;;22.20;17.20;;;;;;;8.75;91.21;102564.22;2104084;28;43510;-61
2021/12/13 13:37:04;;;;;;;24.52;17.58;;;;;;;8.74;91.46;102561.53;2105827;28;31674;-60
2021/12/13 13:38:17;;;;;;;24.33;17.83;;;;;;;8.70;91.20;102557.94;2113403;28;44520;-61
2021/12/13 13:39:41;;;;;;;21.15;16.58;;;;;;;8.70;91.47;102557.94;2113638;28;43362;-60
2021/12/13 13:40:44;;;;;;;22.45;16.95;;;;;;;8.70;91.06;102554.38;2113514;28;46491;-60
2021/12/13 13:41:56;;;;;;;23.98;17.23;;;;;;;8.70;90.78;102554.38;2113034;28;42363;-61
2021/12/13 13:43:04;;;;;;;21.38;16.20;;;;;;;8.71;91.10;102550.84;2112158;28;44471;-60
2021/12/13 13:44:18;;;;;;;19.33;16.15;;;;;;;8.71;91.67;102557.06;2113743;28;45862;-60
2021/12/13 13:45:27;;;;;;;19.83;15.93;;;;;;;8.71;91.86;102561.50;2104560;28;45216;-61
2021/12/13 13:46:29;;;;;;;22.60;16.07;;;;;;;8.68;91.05;102559.69;2105371;28;45428;-60
2021/12/13 13:47:42;;;;;;;20.75;17.35;;;;;;;8.68;91.18;102562.34;2113865;28;43482;-68
2021/12/13 13:48:44;;;;;;;22.40;16.98;;;;;;;8.68;91.44;102550.78;2104616;28;45312;-60
2021/12/13 13:49:49;;;;;;;26.63;17.10;;;;;;;8.68;91.31;102551.69;2107602;28;20059;-61
2021/12/13 13:51:00;;;;;;;20.15;15.35;;;;;;;8.73;91.37;102557.97;2104783;28;26197;-60
2021/12/13 13:52:21;;;;;;;20.13;16.25;;;;;;;8.74;90.61;102562.44;2097863;28;44083;-60
2021/12/13 13:53:27;;;;;;;22.90;16.27;;;;;;;8.77;91.10;102551.81;2109148;28;27989;-61
2021/12/13 13:54:29;;;;;;;24.40;16.75;;;;;;;8.77;90.95;102551.81;2113436;28;45795;-61
2021/12/13 13:55:42;;;;;;;22.10;15.90;;;;;;;8.78;90.84;102550.91;2104522;28;46576;-61
2021/12/13 13:56:47;;;;;;;21.20;15.82;;;;;;;8.78;90.78;102553.56;2106194;28;43867;-62
2021/12/13 13:57:55;;;;;;;21.52;16.58;;;;;;;8.78;91.23;102555.34;2112920;28;44342;-61
2021/12/13 13:59:10;;;;;;;23.90;16.75;;;;;;;8.72;90.87;102547.25;2113807;28;43713;-61
2021/12/13 14:00:12;;;;;;;20.55;16.35;;;;;;;8.67;90.88;102557.00;2113181;27;44157;-62
2021/12/13 14:01:26;;;;;;;22.92;17.08;;;;;;;8.67;90.99;102560.59;2113843;28;45625;-61
2021/12/13 14:02:37;;;;;;;21.83;16.75;;;;;;;8.67;91.36;102557.00;2114082;28;33754;-61
2021/12/13 14:03:47;;;;;;;26.52;16.85;;;;;;;8.65;91.15;102557.00;2104366;28;44283;-62
2021/12/13 14:04:58;;;;;;;21.45;16.02;;;;;;;8.66;91.48;102556.09;2107008;28;28032;-62
2021/12/13 14:06:03;;;;;;;21.80;16.40;;;;;;;8.67;91.64;102557.91;2104803;28;43638;-61
2021/12/13 14:07:18;;;;;;;23.17;16.77;;;;;;;8.65;91.29;102564.09;2104825;28;44243;-61
2021/12/13 14:08:26;;;;;;;22.85;16.52;;;;;;;8.64;90.99;102560.53;2107338;28;42563;-62
2021/12/13 14:09:45;;;;;;;24.15;16.17;;;;;;;8.65;92.17;102565.00;2113907;28;44052;-61
2021/12/13 14:10:49;;;;;;;18.63;14.23;;;;;;;8.65;91.14;102567.69;2105140;28;32471;-61
2021/12/13 14:12:06;;;;;;;27.70;18.67;;;;;;;8.63;90.81;102568.53;2104228;28;43112;-61
2021/12/13 14:13:10;;;;;;;28.38;20.55;;;;;;;8.62;91.61;102569.44;2103277;28;45047;-62
2021/12/13 14:14:18;;;;;;;52.33;31.38;;;;;;;8.60;91.96;102564.94;2106436;28;43800;-60
2021/12/13 14:15:32;;;;;;;39.25;25.27;;;;;;;8.58;91.67;102568.50;2114254;28;44438;-61
2021/12/13 14:16:34;;;;;;;32.53;22.23;;;;;;;8.59;91.99;102572.94;2113289;28;45454;-61
2021/12/13 14:17:48;;;;;;;31.38;21.25;;;;;;;8.58;92.11;102569.38;2105335;28;20036;-61
2021/12/13 14:18:53;;;;;;;34.70;22.40;;;;;;;8.57;91.20;102569.34;2106811;28;44070;-60
2021/12/13 14:19:54;;;;;;;40.50;25.73;;;;;;;8.55;92.01;102566.66;2112989;28;45936;-62
2021/12/13 14:21:03;;;;;;;42.28;27.35;;;;;;;8.55;91.65;102569.34;2104197;28;45423;-61
2021/12/13 14:22:07;;;;;;;38.72;24.60;;;;;;;8.55;91.86;102568.44;2104875;28;35484;-61
2021/12/13 14:23:11;;;;;;;52.63;31.58;;;;;;;8.55;92.03;102571.13;2106094;28;30013;-61
2021/12/13 14:24:14;;;;;;;49.45;29.73;;;;;;;8.55;92.28;102564.00;2113420;28;44061;-60
2021/12/13 14:25:36;;;;;;;35.25;22.00;;;;;;;8.56;91.19;102563.13;2104782;28;44592;-61
2021/12/13 14:26:37;;;;;;;31.80;21.88;;;;;;;8.53;91.65;102562.19;2104420;28;44088;-64
2021/12/13 14:27:46;;;;;;;35.13;22.45;;;;;;;8.52;91.42;102566.63;2104678;28;44819;-59
2021/12/13 14:29:07;;;;;;;41.15;23.98;;;;;;;8.54;91.74;102574.66;2096682;28;20033;-61
2021/12/13 14:30:24;;;;;;;42.08;24.98;;;;;;;8.54;92.39;102571.97;2100012;28;44116;-60
2021/12/13 14:32:58;;;;;;;32.22;21.40;;;;;;;8.52;91.46;102579.09;2081235;28;20038;-63
2021/12/13 14:34:05;;;;;;;33.85;21.85;;;;;;;8.51;91.92;102582.66;2081358;28;46326;-64
2021/12/13 14:35:17;;;;;;;29.92;21.60;;;;;;;8.50;92.80;102578.16;2095240;28;43814;-63
2021/12/13 14:36:28;;;;;;;27.55;18.70;;;;;;;8.50;91.63;102576.38;2092262;28;44450;-64
2021/12/13 14:37:34;;;;;;;33.53;21.17;;;;;;;8.50;90.84;102578.16;2071551;28;46021;-63
2021/12/13 14:38:42;;;;;;;34.55;22.27;;;;;;;8.51;92.09;102588.00;2073287;28;44117;-64
2021/12/13 14:39:50;;;;;;;24.13;18.83;;;;;;;8.49;91.70;102577.28;2079301;28;45197;-64